sensor_id;sensor_type;location;lat;lon;timestamp;P1;durP1;ratioP1;P2;durP2;ratioP2
21297;SDS011;10808;48.010;11.326;2023-02-15T00:01:51;32.20;;;20.42;;
21297;SDS011;10808;48.010;11.326;2023-02-15T00:04:18;30.40;;;19.83;;
21297;SDS011;10808;48.010;11.326;2023-02-15T00:06:46;27.55;;;17.52;;
21297;SDS011;10808;48.010;11.326;2023-02-15T00:09:13;27.50;;;18.00;;
21297;SDS011;10808;48.010;11.326;2023-02-15T00:11:40;27.08;;;17.02;;
21297;SDS011;10808;48.010;11.326;2023-02-15T00:16:37;27.75;;;16.73;;
21297;SDS011;10808;48.010;11.326;2023-02-15T00:19:04;23.33;;;15.68;;
21297;SDS011;10808;48.010;11.326;2023-02-15T00:21:32;22.93;;;15.63;;
21297;SDS011;10808;48.010;11.326;2023-02-15T00:23:59;23.30;;;15.27;;
21297;SDS011;10808;48.010;11.326;2023-02-15T00:26:26;21.93;;;14.77;;
21297;SDS011;10808;48.010;11.326;2023-02-15T00:28:53;23.52;;;15.02;;
21297;SDS011;10808;48.010;11.326;2023-02-15T00:31:21;23.67;;;15.13;;
21297;SDS011;10808;48.010;11.326;2023-02-15T00:33:47;23.13;;;14.70;;
21297;SDS011;10808;48.010;11.326;2023-02-15T00:36:13;22.98;;;14.85;;
21297;SDS011;10808;48.010;11.326;2023-02-15T00:38:39;21.70;;;14.63;;
21297;SDS011;10808;48.010;11.326;2023-02-15T00:41:06;22.92;;;15.05;;
21297;SDS011;10808;48.010;11.326;2023-02-15T00:43:33;22.73;;;15.10;;
21297;SDS011;10808;48.010;11.326;2023-02-15T00:46:00;22.25;;;15.45;;
21297;SDS011;10808;48.010;11.326;2023-02-15T00:48:27;22.45;;;15.15;;
21297;SDS011;10808;48.010;11.326;2023-02-15T00:50:54;23.27;;;15.37;;
21297;SDS011;10808;48.010;11.326;2023-02-15T00:53:21;23.67;;;15.23;;
21297;SDS011;10808;48.010;11.326;2023-02-15T00:55:48;24.58;;;15.85;;
21297;SDS011;10808;48.010;11.326;2023-02-15T00:58:14;28.08;;;16.85;;
21297;SDS011;10808;48.010;11.326;2023-02-15T01:00:42;23.23;;;15.73;;
21297;SDS011;10808;48.010;11.326;2023-02-15T01:03:09;25.10;;;15.97;;
21297;SDS011;10808;48.010;11.326;2023-02-15T01:05:36;24.00;;;15.93;;
21297;SDS011;10808;48.010;11.326;2023-02-15T01:08:02;24.77;;;16.23;;
21297;SDS011;10808;48.010;11.326;2023-02-15T01:10:28;26.38;;;16.40;;
21297;SDS011;10808;48.010;11.326;2023-02-15T01:12:55;26.13;;;16.53;;
21297;SDS011;10808;48.010;11.326;2023-02-15T01:15:23;26.05;;;16.52;;
21297;SDS011;10808;48.010;11.326;2023-02-15T01:17:49;27.15;;;16.88;;
21297;SDS011;10808;48.010;11.326;2023-02-15T01:20:27;27.93;;;18.13;;
21297;SDS011;10808;48.010;11.326;2023-02-15T01:22:55;25.52;;;16.67;;
21297;SDS011;10808;48.010;11.326;2023-02-15T01:25:22;27.23;;;16.83;;
21297;SDS011;10808;48.010;11.326;2023-02-15T01:27:50;27.92;;;17.77;;
21297;SDS011;10808;48.010;11.326;2023-02-15T01:30:16;29.25;;;17.88;;
21297;SDS011;10808;48.010;11.326;2023-02-15T01:32:43;28.92;;;17.15;;
21297;SDS011;10808;48.010;11.326;2023-02-15T01:35:09;27.38;;;16.83;;
21297;SDS011;10808;48.010;11.326;2023-02-15T01:37:36;29.03;;;17.77;;
21297;SDS011;10808;48.010;11.326;2023-02-15T01:40:03;27.30;;;17.17;;
21297;SDS011;10808;48.010;11.326;2023-02-15T01:42:33;29.52;;;17.30;;
21297;SDS011;10808;48.010;11.326;2023-02-15T01:47:58;27.20;;;16.83;;
21297;SDS011;10808;48.010;11.326;2023-02-15T01:50:43;26.00;;;16.70;;
21297;SDS011;10808;48.010;11.326;2023-02-15T01:53:19;29.88;;;18.00;;
21297;SDS011;10808;48.010;11.326;2023-02-15T01:56:01;30.05;;;17.98;;
21297;SDS011;10808;48.010;11.326;2023-02-15T01:58:32;25.48;;;16.88;;
21297;SDS011;10808;48.010;11.326;2023-02-15T02:00:59;27.33;;;17.63;;
21297;SDS011;10808;48.010;11.326;2023-02-15T02:03:41;27.37;;;17.80;;
21297;SDS011;10808;48.010;11.326;2023-02-15T02:06:15;27.13;;;16.90;;
21297;SDS011;10808;48.010;11.326;2023-02-15T02:08:41;27.38;;;17.05;;
21297;SDS011;10808;48.010;11.326;2023-02-15T02:11:11;27.08;;;17.10;;
21297;SDS011;10808;48.010;11.326;2023-02-15T02:13:39;26.77;;;16.58;;
21297;SDS011;10808;48.010;11.326;2023-02-15T02:16:09;28.10;;;17.17;;
21297;SDS011;10808;48.010;11.326;2023-02-15T02:21:17;25.23;;;15.93;;
21297;SDS011;10808;48.010;11.326;2023-02-15T02:24:03;21.85;;;14.05;;
21297;SDS011;10808;48.010;11.326;2023-02-15T02:35:40;18.98;;;13.00;;
21297;SDS011;10808;48.010;11.326;2023-02-15T02:41:18;19.10;;;12.95;;
21297;SDS011;10808;48.010;11.326;2023-02-15T02:44:00;19.40;;;13.02;;
21297;SDS011;10808;48.010;11.326;2023-02-15T02:46:50;18.40;;;12.07;;
21297;SDS011;10808;48.010;11.326;2023-02-15T02:49:31;18.05;;;12.05;;
21297;SDS011;10808;48.010;11.326;2023-02-15T02:52:03;17.60;;;11.63;;
21297;SDS011;10808;48.010;11.326;2023-02-15T02:54:32;16.23;;;11.57;;
21297;SDS011;10808;48.010;11.326;2023-02-15T02:57:02;16.15;;;11.60;;
21297;SDS011;10808;48.010;11.326;2023-02-15T02:59:32;15.85;;;11.23;;
21297;SDS011;10808;48.010;11.326;2023-02-15T03:02:05;14.93;;;10.90;;
21297;SDS011;10808;48.010;11.326;2023-02-15T03:04:39;15.90;;;11.10;;
21297;SDS011;10808;48.010;11.326;2023-02-15T03:07:18;16.13;;;11.00;;
21297;SDS011;10808;48.010;11.326;2023-02-15T03:09:49;15.82;;;11.60;;
21297;SDS011;10808;48.010;11.326;2023-02-15T03:12:25;17.27;;;12.07;;
21297;SDS011;10808;48.010;11.326;2023-02-15T03:15:42;16.45;;;11.77;;
21297;SDS011;10808;48.010;11.326;2023-02-15T03:17:47;15.98;;;11.23;;
21297;SDS011;10808;48.010;11.326;2023-02-15T03:20:19;15.82;;;11.60;;
21297;SDS011;10808;48.010;11.326;2023-02-15T03:23:06;15.30;;;11.00;;
21297;SDS011;10808;48.010;11.326;2023-02-15T03:25:37;15.20;;;11.15;;
21297;SDS011;10808;48.010;11.326;2023-02-15T03:28:11;16.58;;;11.48;;
21297;SDS011;10808;48.010;11.326;2023-02-15T03:30:42;17.17;;;11.68;;
21297;SDS011;10808;48.010;11.326;2023-02-15T03:33:12;15.50;;;11.00;;
21297;SDS011;10808;48.010;11.326;2023-02-15T03:35:43;18.65;;;12.23;;
21297;SDS011;10808;48.010;11.326;2023-02-15T03:38:17;15.43;;;11.30;;
21297;SDS011;10808;48.010;11.326;2023-02-15T03:40:50;16.65;;;11.98;;
21297;SDS011;10808;48.010;11.326;2023-02-15T03:43:45;15.88;;;11.13;;
21297;SDS011;10808;48.010;11.326;2023-02-15T03:46:22;15.15;;;10.82;;
21297;SDS011;10808;48.010;11.326;2023-02-15T03:49:00;16.00;;;11.70;;
21297;SDS011;10808;48.010;11.326;2023-02-15T03:51:44;16.23;;;11.50;;
21297;SDS011;10808;48.010;11.326;2023-02-15T03:54:24;16.27;;;11.27;;
21297;SDS011;10808;48.010;11.326;2023-02-15T03:57:15;17.17;;;11.63;;
21297;SDS011;10808;48.010;11.326;2023-02-15T04:00:09;15.88;;;11.23;;
21297;SDS011;10808;48.010;11.326;2023-02-15T04:05:41;17.85;;;11.20;;
21297;SDS011;10808;48.010;11.326;2023-02-15T04:08:09;15.25;;;10.93;;
21297;SDS011;10808;48.010;11.326;2023-02-15T04:10:35;14.85;;;10.80;;
21297;SDS011;10808;48.010;11.326;2023-02-15T04:13:31;15.07;;;10.88;;
21297;SDS011;10808;48.010;11.326;2023-02-15T04:15:57;15.35;;;11.25;;
21297;SDS011;10808;48.010;11.326;2023-02-15T04:18:33;15.68;;;10.65;;
21297;SDS011;10808;48.010;11.326;2023-02-15T04:21:25;15.68;;;11.02;;
21297;SDS011;10808;48.010;11.326;2023-02-15T04:24:12;15.50;;;10.98;;
21297;SDS011;10808;48.010;11.326;2023-02-15T04:26:57;14.47;;;10.17;;
21297;SDS011;10808;48.010;11.326;2023-02-15T04:29:25;16.10;;;10.63;;
21297;SDS011;10808;48.010;11.326;2023-02-15T04:31:52;15.63;;;10.82;;
21297;SDS011;10808;48.010;11.326;2023-02-15T04:34:19;15.57;;;10.77;;
21297;SDS011;10808;48.010;11.326;2023-02-15T04:36:46;14.75;;;10.93;;
21297;SDS011;10808;48.010;11.326;2023-02-15T04:39:13;15.10;;;10.60;;
21297;SDS011;10808;48.010;11.326;2023-02-15T04:41:40;15.93;;;10.95;;
21297;SDS011;10808;48.010;11.326;2023-02-15T04:44:06;14.77;;;10.70;;
21297;SDS011;10808;48.010;11.326;2023-02-15T04:46:32;15.93;;;10.90;;
21297;SDS011;10808;48.010;11.326;2023-02-15T04:48:58;15.32;;;11.00;;
21297;SDS011;10808;48.010;11.326;2023-02-15T04:51:24;15.75;;;10.80;;
21297;SDS011;10808;48.010;11.326;2023-02-15T04:53:51;15.48;;;11.35;;
21297;SDS011;10808;48.010;11.326;2023-02-15T04:56:20;16.15;;;11.40;;
21297;SDS011;10808;48.010;11.326;2023-02-15T04:58:46;15.98;;;10.75;;
21297;SDS011;10808;48.010;11.326;2023-02-15T05:01:12;14.13;;;10.32;;
21297;SDS011;10808;48.010;11.326;2023-02-15T05:03:39;13.48;;;10.23;;
21297;SDS011;10808;48.010;11.326;2023-02-15T05:06:05;15.00;;;10.60;;
21297;SDS011;10808;48.010;11.326;2023-02-15T05:08:31;15.25;;;10.70;;
21297;SDS011;10808;48.010;11.326;2023-02-15T05:10:57;14.97;;;10.70;;
21297;SDS011;10808;48.010;11.326;2023-02-15T05:13:23;15.40;;;10.13;;
21297;SDS011;10808;48.010;11.326;2023-02-15T05:15:50;15.90;;;11.25;;
21297;SDS011;10808;48.010;11.326;2023-02-15T05:18:18;16.15;;;11.07;;
21297;SDS011;10808;48.010;11.326;2023-02-15T05:20:45;15.95;;;11.07;;
21297;SDS011;10808;48.010;11.326;2023-02-15T05:23:11;16.52;;;11.25;;
21297;SDS011;10808;48.010;11.326;2023-02-15T05:25:37;16.17;;;11.05;;
21297;SDS011;10808;48.010;11.326;2023-02-15T05:28:23;20.10;;;12.98;;
21297;SDS011;10808;48.010;11.326;2023-02-15T05:30:52;23.25;;;14.85;;
21297;SDS011;10808;48.010;11.326;2023-02-15T05:33:24;21.42;;;14.18;;
21297;SDS011;10808;48.010;11.326;2023-02-15T05:35:50;24.42;;;15.88;;
21297;SDS011;10808;48.010;11.326;2023-02-15T05:38:16;28.50;;;16.67;;
21297;SDS011;10808;48.010;11.326;2023-02-15T05:40:49;30.05;;;17.52;;
21297;SDS011;10808;48.010;11.326;2023-02-15T05:43:16;29.15;;;17.13;;
21297;SDS011;10808;48.010;11.326;2023-02-15T05:45:46;28.33;;;17.07;;
21297;SDS011;10808;48.010;11.326;2023-02-15T05:48:12;27.27;;;17.00;;
21297;SDS011;10808;48.010;11.326;2023-02-15T05:50:39;27.20;;;17.00;;
21297;SDS011;10808;48.010;11.326;2023-02-15T05:53:05;27.80;;;16.98;;
21297;SDS011;10808;48.010;11.326;2023-02-15T05:55:31;28.15;;;17.17;;
21297;SDS011;10808;48.010;11.326;2023-02-15T05:57:57;27.45;;;17.17;;
21297;SDS011;10808;48.010;11.326;2023-02-15T06:00:23;25.98;;;15.98;;
21297;SDS011;10808;48.010;11.326;2023-02-15T06:02:49;25.23;;;16.63;;
21297;SDS011;10808;48.010;11.326;2023-02-15T06:05:15;25.20;;;15.80;;
21297;SDS011;10808;48.010;11.326;2023-02-15T06:07:44;25.48;;;16.35;;
21297;SDS011;10808;48.010;11.326;2023-02-15T06:10:11;24.55;;;15.20;;
21297;SDS011;10808;48.010;11.326;2023-02-15T06:12:37;25.97;;;15.57;;
21297;SDS011;10808;48.010;11.326;2023-02-15T06:15:03;26.52;;;16.20;;
21297;SDS011;10808;48.010;11.326;2023-02-15T06:17:30;24.48;;;15.93;;
21297;SDS011;10808;48.010;11.326;2023-02-15T06:19:56;22.03;;;15.10;;
21297;SDS011;10808;48.010;11.326;2023-02-15T06:22:22;23.40;;;15.50;;
21297;SDS011;10808;48.010;11.326;2023-02-15T06:24:48;24.77;;;16.35;;
21297;SDS011;10808;48.010;11.326;2023-02-15T06:27:14;25.38;;;15.70;;
21297;SDS011;10808;48.010;11.326;2023-02-15T06:29:40;24.20;;;15.70;;
21297;SDS011;10808;48.010;11.326;2023-02-15T06:32:06;24.17;;;15.27;;
21297;SDS011;10808;48.010;11.326;2023-02-15T06:34:32;24.65;;;16.38;;
21297;SDS011;10808;48.010;11.326;2023-02-15T06:36:58;26.00;;;16.35;;
21297;SDS011;10808;48.010;11.326;2023-02-15T06:39:24;26.05;;;15.50;;
21297;SDS011;10808;48.010;11.326;2023-02-15T06:41:50;24.10;;;15.70;;
21297;SDS011;10808;48.010;11.326;2023-02-15T06:44:16;23.77;;;15.68;;
21297;SDS011;10808;48.010;11.326;2023-02-15T06:46:43;23.75;;;15.63;;
21297;SDS011;10808;48.010;11.326;2023-02-15T06:49:09;24.02;;;15.38;;
21297;SDS011;10808;48.010;11.326;2023-02-15T06:51:36;22.77;;;15.57;;
21297;SDS011;10808;48.010;11.326;2023-02-15T06:54:02;21.90;;;14.35;;
21297;SDS011;10808;48.010;11.326;2023-02-15T06:56:30;21.90;;;14.85;;
21297;SDS011;10808;48.010;11.326;2023-02-15T06:58:56;22.50;;;15.20;;
21297;SDS011;10808;48.010;11.326;2023-02-15T07:01:22;25.67;;;15.90;;
21297;SDS011;10808;48.010;11.326;2023-02-15T07:03:48;22.42;;;15.10;;
21297;SDS011;10808;48.010;11.326;2023-02-15T07:06:14;25.58;;;17.98;;
21297;SDS011;10808;48.010;11.326;2023-02-15T07:08:40;27.33;;;18.48;;
21297;SDS011;10808;48.010;11.326;2023-02-15T07:11:06;29.20;;;19.53;;
21297;SDS011;10808;48.010;11.326;2023-02-15T07:13:51;25.73;;;17.52;;
21297;SDS011;10808;48.010;11.326;2023-02-15T07:16:18;22.92;;;16.05;;
21297;SDS011;10808;48.010;11.326;2023-02-15T07:18:44;19.70;;;13.45;;
21297;SDS011;10808;48.010;11.326;2023-02-15T07:21:10;19.25;;;13.63;;
21297;SDS011;10808;48.010;11.326;2023-02-15T07:23:37;18.57;;;13.00;;
21297;SDS011;10808;48.010;11.326;2023-02-15T07:26:04;19.00;;;13.45;;
21297;SDS011;10808;48.010;11.326;2023-02-15T07:28:31;20.45;;;14.00;;
21297;SDS011;10808;48.010;11.326;2023-02-15T07:31:01;19.05;;;12.98;;
21297;SDS011;10808;48.010;11.326;2023-02-15T07:33:29;16.83;;;11.50;;
21297;SDS011;10808;48.010;11.326;2023-02-15T07:35:57;16.25;;;11.57;;
21297;SDS011;10808;48.010;11.326;2023-02-15T07:38:25;16.42;;;11.85;;
21297;SDS011;10808;48.010;11.326;2023-02-15T07:40:57;16.75;;;12.73;;
21297;SDS011;10808;48.010;11.326;2023-02-15T07:43:24;15.63;;;11.63;;
21297;SDS011;10808;48.010;11.326;2023-02-15T07:45:50;15.88;;;11.77;;
21297;SDS011;10808;48.010;11.326;2023-02-15T07:48:16;17.17;;;12.10;;
21297;SDS011;10808;48.010;11.326;2023-02-15T07:50:43;16.55;;;12.30;;
21297;SDS011;10808;48.010;11.326;2023-02-15T07:53:09;15.30;;;11.98;;
21297;SDS011;10808;48.010;11.326;2023-02-15T07:55:35;16.10;;;12.20;;
21297;SDS011;10808;48.010;11.326;2023-02-15T07:58:01;15.52;;;12.18;;
21297;SDS011;10808;48.010;11.326;2023-02-15T08:00:28;16.13;;;12.07;;
21297;SDS011;10808;48.010;11.326;2023-02-15T08:02:55;15.35;;;11.95;;
21297;SDS011;10808;48.010;11.326;2023-02-15T08:05:40;17.48;;;13.60;;
21297;SDS011;10808;48.010;11.326;2023-02-15T08:08:08;17.35;;;13.20;;
21297;SDS011;10808;48.010;11.326;2023-02-15T08:19:46;16.77;;;12.80;;
21297;SDS011;10808;48.010;11.326;2023-02-15T08:21:52;18.43;;;13.70;;
21297;SDS011;10808;48.010;11.326;2023-02-15T08:24:20;17.08;;;13.20;;
21297;SDS011;10808;48.010;11.326;2023-02-15T08:26:48;20.73;;;15.00;;
21297;SDS011;10808;48.010;11.326;2023-02-15T08:29:15;21.80;;;15.95;;
21297;SDS011;10808;48.010;11.326;2023-02-15T08:31:43;21.30;;;15.38;;
21297;SDS011;10808;48.010;11.326;2023-02-15T08:34:10;21.73;;;15.50;;
21297;SDS011;10808;48.010;11.326;2023-02-15T08:36:39;22.33;;;15.73;;
21297;SDS011;10808;48.010;11.326;2023-02-15T08:39:05;21.90;;;15.43;;
21297;SDS011;10808;48.010;11.326;2023-02-15T08:41:33;21.75;;;15.52;;
21297;SDS011;10808;48.010;11.326;2023-02-15T08:44:01;22.00;;;15.60;;
21297;SDS011;10808;48.010;11.326;2023-02-15T08:46:30;22.10;;;15.48;;
21297;SDS011;10808;48.010;11.326;2023-02-15T08:48:59;21.48;;;15.25;;
21297;SDS011;10808;48.010;11.326;2023-02-15T08:51:26;21.05;;;15.40;;
21297;SDS011;10808;48.010;11.326;2023-02-15T08:53:55;23.65;;;17.05;;
21297;SDS011;10808;48.010;11.326;2023-02-15T08:56:25;25.73;;;18.23;;
21297;SDS011;10808;48.010;11.326;2023-02-15T08:58:54;23.85;;;17.15;;
21297;SDS011;10808;48.010;11.326;2023-02-15T09:01:25;25.45;;;16.67;;
21297;SDS011;10808;48.010;11.326;2023-02-15T09:03:57;21.75;;;15.85;;
21297;SDS011;10808;48.010;11.326;2023-02-15T09:06:29;21.95;;;15.95;;
21297;SDS011;10808;48.010;11.326;2023-02-15T09:08:58;20.88;;;15.60;;
21297;SDS011;10808;48.010;11.326;2023-02-15T09:11:26;21.40;;;15.47;;
21297;SDS011;10808;48.010;11.326;2023-02-15T09:13:57;20.25;;;15.43;;
21297;SDS011;10808;48.010;11.326;2023-02-15T09:16:25;22.90;;;16.77;;
21297;SDS011;10808;48.010;11.326;2023-02-15T09:18:53;20.02;;;15.18;;
21297;SDS011;10808;48.010;11.326;2023-02-15T09:21:20;20.23;;;15.73;;
21297;SDS011;10808;48.010;11.326;2023-02-15T09:23:49;20.60;;;15.50;;
21297;SDS011;10808;48.010;11.326;2023-02-15T09:26:17;19.15;;;14.43;;
21297;SDS011;10808;48.010;11.326;2023-02-15T09:28:45;19.63;;;14.52;;
21297;SDS011;10808;48.010;11.326;2023-02-15T09:31:13;18.17;;;13.90;;
21297;SDS011;10808;48.010;11.326;2023-02-15T09:33:42;17.60;;;13.53;;
21297;SDS011;10808;48.010;11.326;2023-02-15T09:36:16;16.20;;;12.20;;
21297;SDS011;10808;48.010;11.326;2023-02-15T09:38:44;16.30;;;12.68;;
21297;SDS011;10808;48.010;11.326;2023-02-15T09:46:59;13.88;;;10.90;;
21297;SDS011;10808;48.010;11.326;2023-02-15T09:50:00;12.82;;;10.43;;
21297;SDS011;10808;48.010;11.326;2023-02-15T09:52:45;13.82;;;10.68;;
21297;SDS011;10808;48.010;11.326;2023-02-15T09:58:35;12.15;;;10.10;;
21297;SDS011;10808;48.010;11.326;2023-02-15T10:03:53;12.63;;;9.98;;
21297;SDS011;10808;48.010;11.326;2023-02-15T10:15:24;12.25;;;9.80;;
21297;SDS011;10808;48.010;11.326;2023-02-15T10:20:51;15.10;;;12.02;;
21297;SDS011;10808;48.010;11.326;2023-02-15T10:31:49;13.65;;;10.38;;
21297;SDS011;10808;48.010;11.326;2023-02-15T10:34:24;11.30;;;9.20;;
21297;SDS011;10808;48.010;11.326;2023-02-15T10:37:34;11.05;;;8.65;;
21297;SDS011;10808;48.010;11.326;2023-02-15T10:40:23;10.25;;;7.40;;
21297;SDS011;10808;48.010;11.326;2023-02-15T10:45:48;9.15;;;6.65;;
21297;SDS011;10808;48.010;11.326;2023-02-15T10:48:44;8.32;;;6.25;;
21297;SDS011;10808;48.010;11.326;2023-02-15T10:54:32;10.17;;;7.27;;
21297;SDS011;10808;48.010;11.326;2023-02-15T11:00:19;8.18;;;7.20;;
21297;SDS011;10808;48.010;11.326;2023-02-15T11:02:59;8.98;;;7.45;;
21297;SDS011;10808;48.010;11.326;2023-02-15T11:08:10;8.25;;;7.18;;
21297;SDS011;10808;48.010;11.326;2023-02-15T11:10:38;8.98;;;7.22;;
21297;SDS011;10808;48.010;11.326;2023-02-15T11:13:09;8.38;;;7.43;;
21297;SDS011;10808;48.010;11.326;2023-02-15T11:15:40;11.13;;;7.00;;
21297;SDS011;10808;48.010;11.326;2023-02-15T11:18:13;8.35;;;6.65;;
21297;SDS011;10808;48.010;11.326;2023-02-15T11:20:58;10.13;;;6.60;;
21297;SDS011;10808;48.010;11.326;2023-02-15T11:23:35;10.68;;;6.60;;
21297;SDS011;10808;48.010;11.326;2023-02-15T11:26:10;9.10;;;6.88;;
21297;SDS011;10808;48.010;11.326;2023-02-15T11:28:49;10.75;;;6.70;;
21297;SDS011;10808;48.010;11.326;2023-02-15T11:31:21;16.93;;;7.07;;
21297;SDS011;10808;48.010;11.326;2023-02-15T11:34:04;9.65;;;7.45;;
21297;SDS011;10808;48.010;11.326;2023-02-15T11:36:38;8.77;;;6.80;;
21297;SDS011;10808;48.010;11.326;2023-02-15T11:39:10;9.35;;;6.88;;
21297;SDS011;10808;48.010;11.326;2023-02-15T11:41:41;12.73;;;7.22;;
21297;SDS011;10808;48.010;11.326;2023-02-15T11:44:15;9.23;;;7.00;;
21297;SDS011;10808;48.010;11.326;2023-02-15T11:46:49;18.05;;;7.63;;
21297;SDS011;10808;48.010;11.326;2023-02-15T11:49:21;12.50;;;8.07;;
21297;SDS011;10808;48.010;11.326;2023-02-15T11:51:55;11.95;;;7.35;;
21297;SDS011;10808;48.010;11.326;2023-02-15T11:54:26;13.77;;;7.88;;
21297;SDS011;10808;48.010;11.326;2023-02-15T11:56:56;11.70;;;8.15;;
21297;SDS011;10808;48.010;11.326;2023-02-15T11:59:33;11.02;;;7.03;;
21297;SDS011;10808;48.010;11.326;2023-02-15T12:02:02;11.65;;;7.78;;
21297;SDS011;10808;48.010;11.326;2023-02-15T12:07:10;11.48;;;7.95;;
21297;SDS011;10808;48.010;11.326;2023-02-15T12:09:49;13.25;;;7.70;;
21297;SDS011;10808;48.010;11.326;2023-02-15T12:12:37;12.88;;;8.13;;
21297;SDS011;10808;48.010;11.326;2023-02-15T12:15:04;10.27;;;7.70;;
21297;SDS011;10808;48.010;11.326;2023-02-15T12:17:34;12.23;;;7.85;;
21297;SDS011;10808;48.010;11.326;2023-02-15T12:22:45;11.57;;;7.55;;
21297;SDS011;10808;48.010;11.326;2023-02-15T12:28:03;18.05;;;8.32;;
21297;SDS011;10808;48.010;11.326;2023-02-15T12:30:41;12.45;;;8.38;;
21297;SDS011;10808;48.010;11.326;2023-02-15T12:33:42;11.63;;;7.88;;
21297;SDS011;10808;48.010;11.326;2023-02-15T12:36:18;14.43;;;7.78;;
21297;SDS011;10808;48.010;11.326;2023-02-15T12:44:27;12.18;;;8.18;;
21297;SDS011;10808;48.010;11.326;2023-02-15T12:46:59;12.38;;;8.00;;
21297;SDS011;10808;48.010;11.326;2023-02-15T12:49:32;13.57;;;8.32;;
21297;SDS011;10808;48.010;11.326;2023-02-15T12:52:10;10.82;;;8.30;;
21297;SDS011;10808;48.010;11.326;2023-02-15T12:54:50;15.38;;;8.15;;
21297;SDS011;10808;48.010;11.326;2023-02-15T12:57:24;13.07;;;8.27;;
21297;SDS011;10808;48.010;11.326;2023-02-15T13:05:14;11.82;;;8.52;;
21297;SDS011;10808;48.010;11.326;2023-02-15T13:08:15;18.37;;;8.03;;
21297;SDS011;10808;48.010;11.326;2023-02-15T13:10:58;14.30;;;8.07;;
21297;SDS011;10808;48.010;11.326;2023-02-15T13:13:38;17.83;;;8.60;;
21297;SDS011;10808;48.010;11.326;2023-02-15T13:16:41;12.20;;;7.75;;
21297;SDS011;10808;48.010;11.326;2023-02-15T13:19:10;11.82;;;7.80;;
21297;SDS011;10808;48.010;11.326;2023-02-15T13:21:47;9.98;;;5.80;;
21297;SDS011;10808;48.010;11.326;2023-02-15T13:24:20;6.00;;;4.20;;
21297;SDS011;10808;48.010;11.326;2023-02-15T13:27:10;6.35;;;4.45;;
21297;SDS011;10808;48.010;11.326;2023-02-15T13:29:42;6.65;;;4.60;;
21297;SDS011;10808;48.010;11.326;2023-02-15T13:34:57;8.65;;;5.88;;
21297;SDS011;10808;48.010;11.326;2023-02-15T13:37:42;11.48;;;5.97;;
21297;SDS011;10808;48.010;11.326;2023-02-15T13:46:17;8.18;;;6.07;;
21297;SDS011;10808;48.010;11.326;2023-02-15T13:49:04;8.10;;;5.57;;
21297;SDS011;10808;48.010;11.326;2023-02-15T14:00:04;8.43;;;5.27;;
21297;SDS011;10808;48.010;11.326;2023-02-15T14:03:09;5.80;;;4.18;;
21297;SDS011;10808;48.010;11.326;2023-02-15T14:11:55;7.37;;;4.80;;
21297;SDS011;10808;48.010;11.326;2023-02-15T14:15:02;6.10;;;4.47;;
21297;SDS011;10808;48.010;11.326;2023-02-15T14:20:45;8.00;;;5.90;;
21297;SDS011;10808;48.010;11.326;2023-02-15T14:35:02;15.15;;;10.40;;
21297;SDS011;10808;48.010;11.326;2023-02-15T14:40:12;14.55;;;9.88;;
21297;SDS011;10808;48.010;11.326;2023-02-15T14:56:45;22.80;;;14.02;;
21297;SDS011;10808;48.010;11.326;2023-02-15T14:59:17;18.33;;;13.48;;
21297;SDS011;10808;48.010;11.326;2023-02-15T15:01:56;18.73;;;13.13;;
21297;SDS011;10808;48.010;11.326;2023-02-15T15:04:29;16.37;;;13.00;;
21297;SDS011;10808;48.010;11.326;2023-02-15T15:12:58;30.00;;;16.80;;
21297;SDS011;10808;48.010;11.326;2023-02-15T15:15:45;28.15;;;22.63;;
21297;SDS011;10808;48.010;11.326;2023-02-15T15:21:45;23.30;;;17.65;;
21297;SDS011;10808;48.010;11.326;2023-02-15T15:38:45;40.40;;;26.90;;
21297;SDS011;10808;48.010;11.326;2023-02-15T15:41:42;30.48;;;21.90;;
21297;SDS011;10808;48.010;11.326;2023-02-15T15:50:13;32.63;;;19.17;;
21297;SDS011;10808;48.010;11.326;2023-02-15T15:52:44;28.13;;;19.17;;
21297;SDS011;10808;48.010;11.326;2023-02-15T15:55:18;25.38;;;18.95;;
21297;SDS011;10808;48.010;11.326;2023-02-15T15:57:49;27.25;;;18.98;;
21297;SDS011;10808;48.010;11.326;2023-02-15T16:00:32;25.15;;;18.58;;
21297;SDS011;10808;48.010;11.326;2023-02-15T16:03:20;25.07;;;19.47;;
21297;SDS011;10808;48.010;11.326;2023-02-15T16:05:48;25.35;;;18.92;;
21297;SDS011;10808;48.010;11.326;2023-02-15T16:10:53;32.13;;;19.52;;
21297;SDS011;10808;48.010;11.326;2023-02-15T16:13:19;25.52;;;18.50;;
21297;SDS011;10808;48.010;11.326;2023-02-15T16:15:46;27.83;;;19.85;;
21297;SDS011;10808;48.010;11.326;2023-02-15T16:18:16;29.40;;;19.17;;
21297;SDS011;10808;48.010;11.326;2023-02-15T16:21:18;30.85;;;19.17;;
21297;SDS011;10808;48.010;11.326;2023-02-15T16:23:49;26.27;;;18.75;;
21297;SDS011;10808;48.010;11.326;2023-02-15T16:29:12;27.23;;;18.92;;
21297;SDS011;10808;48.010;11.326;2023-02-15T16:31:43;26.30;;;18.63;;
21297;SDS011;10808;48.010;11.326;2023-02-15T16:34:21;28.05;;;19.73;;
21297;SDS011;10808;48.010;11.326;2023-02-15T16:36:47;30.63;;;20.67;;
21297;SDS011;10808;48.010;11.326;2023-02-15T16:39:19;26.00;;;19.38;;
21297;SDS011;10808;48.010;11.326;2023-02-15T16:41:46;32.78;;;22.02;;
21297;SDS011;10808;48.010;11.326;2023-02-15T16:44:18;31.80;;;21.52;;
21297;SDS011;10808;48.010;11.326;2023-02-15T16:46:51;28.42;;;19.65;;
21297;SDS011;10808;48.010;11.326;2023-02-15T16:49:26;27.35;;;20.00;;
21297;SDS011;10808;48.010;11.326;2023-02-15T16:52:04;34.05;;;20.08;;
21297;SDS011;10808;48.010;11.326;2023-02-15T16:54:32;35.17;;;21.58;;
21297;SDS011;10808;48.010;11.326;2023-02-15T16:57:01;75.47;;;41.00;;
21297;SDS011;10808;48.010;11.326;2023-02-15T16:59:38;73.25;;;42.28;;
21297;SDS011;10808;48.010;11.326;2023-02-15T17:02:42;52.30;;;33.38;;
21297;SDS011;10808;48.010;11.326;2023-02-15T17:05:04;37.25;;;27.42;;
21297;SDS011;10808;48.010;11.326;2023-02-15T17:07:49;38.58;;;27.73;;
21297;SDS011;10808;48.010;11.326;2023-02-15T17:10:32;44.45;;;30.08;;
21297;SDS011;10808;48.010;11.326;2023-02-15T17:13:02;36.00;;;27.75;;
21297;SDS011;10808;48.010;11.326;2023-02-15T17:15:35;35.40;;;24.53;;
21297;SDS011;10808;48.010;11.326;2023-02-15T17:18:03;35.50;;;25.35;;
21297;SDS011;10808;48.010;11.326;2023-02-15T17:20:39;31.90;;;22.88;;
21297;SDS011;10808;48.010;11.326;2023-02-15T17:23:19;30.57;;;22.30;;
21297;SDS011;10808;48.010;11.326;2023-02-15T17:25:47;32.90;;;23.35;;
21297;SDS011;10808;48.010;11.326;2023-02-15T17:28:19;34.47;;;23.87;;
21297;SDS011;10808;48.010;11.326;2023-02-15T17:30:49;35.55;;;24.02;;
21297;SDS011;10808;48.010;11.326;2023-02-15T17:36:03;31.63;;;23.75;;
21297;SDS011;10808;48.010;11.326;2023-02-15T17:38:34;31.50;;;23.47;;
21297;SDS011;10808;48.010;11.326;2023-02-15T17:41:02;38.30;;;23.55;;
21297;SDS011;10808;48.010;11.326;2023-02-15T17:43:28;32.63;;;23.48;;
21297;SDS011;10808;48.010;11.326;2023-02-15T17:45:54;34.05;;;23.17;;
21297;SDS011;10808;48.010;11.326;2023-02-15T17:48:30;36.95;;;25.67;;